Time;durP1;ratioP1;P1;durP2;ratioP2;P2;SDS_P1;SDS_P2;PMS_P1;PMS_P2;Temp;Humidity;BMP_temperature;BMP_pressure;BME280_temperature;BME280_humidity;BME280_pressure;Samples;Min_cycle;Max_cycle;Signal;HPM_P1;HPM_P2
2022/09/03 00:00:08;;;;;;;17.08;12.00;;;16.80;99.90;;;;;;5014642;28;20416;-48
2022/09/03 00:02:44;;;;;;;13.77;11.85;;;16.80;99.90;;;;;;5001357;28;20045;-52
2022/09/03 00:05:17;;;;;;;15.88;13.02;;;16.80;99.90;;;;;;5014165;28;20516;-51
2022/09/03 00:08:08;;;;;;;17.92;12.35;;;16.80;99.90;;;;;;5014598;28;20029;-49
2022/09/03 00:11:07;;;;;;;15.82;12.40;;;16.70;99.90;;;;;;5014598;28;20040;-48
2022/09/03 00:13:37;;;;;;;14.00;11.18;;;16.60;99.90;;;;;;5014569;28;20025;-49
2022/09/03 00:16:09;;;;;;;14.60;11.77;;;16.60;99.90;;;;;;5014342;28;20024;-49
2022/09/03 00:18:41;;;;;;;14.65;12.07;;;16.60;99.90;;;;;;5014288;28;20436;-49
2022/09/03 00:21:11;;;;;;;16.00;12.50;;;16.50;99.90;;;;;;5014249;28;20057;-49
2022/09/03 00:23:43;;;;;;;16.92;13.13;;;16.50;99.90;;;;;;4996811;28;20030;-48
2022/09/03 00:26:11;;;;;;;16.60;14.80;;;16.40;99.90;;;;;;5013708;28;20494;-51
2022/09/03 00:28:58;;;;;;;18.13;14.63;;;16.40;99.90;;;;;;5014197;28;20045;-49
2022/09/03 00:31:36;;;;;;;23.70;16.48;;;16.40;99.90;;;;;;4996391;28;20477;-51
2022/09/03 00:34:15;;;;;;;19.08;14.25;;;16.20;99.90;;;;;;5013958;28;20042;-52
2022/09/03 00:36:42;;;;;;;17.58;14.13;;;16.20;99.90;;;;;;5014084;28;20026;-50
2022/09/03 00:39:14;;;;;;;18.27;14.82;;;16.20;99.90;;;;;;5014162;28;20034;-49
2022/09/03 00:41:48;;;;;;;17.80;13.98;;;16.20;99.90;;;;;;5013759;28;20041;-49
2022/09/03 00:44:37;;;;;;;18.02;13.48;;;16.30;99.90;;;;;;5013877;28;20061;-49
2022/09/03 00:47:19;;;;;;;14.02;11.93;;;16.30;99.90;;;;;;5013789;28;20095;-47
2022/09/03 00:50:43;;;;;;;13.60;11.80;;;16.30;99.90;;;;;;5013763;28;20073;-48
2022/09/03 00:53:31;;;;;;;14.93;12.13;;;16.30;99.90;;;;;;4915080;29;20519;-48
2022/09/03 00:55:58;;;;;;;;;;;16.30;99.90;;;;;;4915464;29;20102;-48
2022/09/03 00:58:44;;;;;;;18.08;12.07;;;16.30;99.90;;;;;;4964221;28;19952;-48
2022/09/03 01:01:17;;;;;;;15.02;11.98;;;16.30;99.90;;;;;;5011288;28;20393;-49
2022/09/03 01:04:05;;;;;;;18.42;12.70;;;16.20;99.90;;;;;;5010439;28;20424;-48
2022/09/03 01:06:57;;;;;;;16.30;12.73;;;16.20;99.90;;;;;;4999835;28;20034;-47
2022/09/03 01:09:34;;;;;;;14.07;11.65;;;16.20;99.90;;;;;;4996805;28;20045;-48
2022/09/03 01:12:43;;;;;;;13.05;10.52;;;16.10;99.90;;;;;;4996407;28;20381;-50
2022/09/03 01:15:38;;;;;;;15.25;11.63;;;16.10;99.90;;;;;;4993255;28;20374;-49
2022/09/03 01:18:13;;;;;;;14.88;11.70;;;16.00;99.90;;;;;;4993807;28;20031;-48
2022/09/03 01:20:51;;;;;;;14.73;11.80;;;15.90;99.90;;;;;;4993527;28;20401;-52
2022/09/03 01:23:34;;;;;;;17.45;13.10;;;15.90;99.90;;;;;;4993500;28;20500;-49
2022/09/03 01:26:18;;;;;;;18.67;13.68;;;15.90;99.90;;;;;;4993366;28;20426;-48
2022/09/03 01:29:19;;;;;;;17.95;14.15;;;16.00;99.90;;;;;;5002529;28;20128;-48
2022/09/03 01:32:10;;;;;;;17.77;14.77;;;16.00;99.90;;;;;;4998691;28;20049;-47
2022/09/03 01:34:39;;;;;;;18.52;13.77;;;15.90;99.90;;;;;;5005842;28;20038;-45
2022/09/03 01:37:19;;;;;;;16.57;14.00;;;15.90;99.90;;;;;;5013049;28;20041;-49
2022/09/03 01:39:50;;;;;;;14.50;12.18;;;15.90;99.90;;;;;;5012740;28;20455;-51
2022/09/03 01:42:40;;;;;;;17.63;13.75;;;15.90;99.90;;;;;;5012582;28;20029;-49
2022/09/03 01:45:27;;;;;;;19.75;13.88;;;15.90;99.90;;;;;;5012724;28;20018;-49
2022/09/03 01:48:24;;;;;;;17.33;14.10;;;15.80;99.90;;;;;;5012606;28;20030;-48
2022/09/03 01:50:58;;;;;;;21.55;16.25;;;15.80;99.90;;;;;;5001452;28;20535;-53
2022/09/03 01:53:35;;;;;;;21.17;17.10;;;15.80;99.90;;;;;;5012024;28;20030;-49
2022/09/03 01:56:21;;;;;;;23.95;17.52;;;15.70;99.90;;;;;;5012609;28;20089;-48
2022/09/03 01:59:01;;;;;;;23.13;18.73;;;15.70;99.90;;;;;;5012437;28;20037;-50
2022/09/03 02:01:52;;;;;;;29.27;21.90;;;16.60;99.90;;;;;;5012189;28;20085;-53
2022/09/03 02:04:22;;;;;;;29.10;21.35;;;15.80;99.90;;;;;;5012464;28;20050;-50
2022/09/03 02:06:49;;;;;;;29.73;21.27;;;15.80;99.90;;;;;;5012454;28;20026;-47
2022/09/03 02:09:15;;;;;;;27.30;20.60;;;15.80;99.90;;;;;;5012119;28;20129;-47
2022/09/03 02:11:42;;;;;;;29.85;21.80;;;15.80;99.90;;;;;;5012144;28;20072;-51
2022/09/03 02:14:08;;;;;;;30.02;22.02;;;15.80;99.90;;;;;;5012087;28;20493;-51
2022/09/03 02:16:34;;;;;;;32.90;24.30;;;15.80;99.90;;;;;;5012175;28;20485;-47
2022/09/03 02:19:12;;;;;;;31.33;24.15;;;15.90;99.90;;;;;;5012049;28;20885;-48
2022/09/03 02:21:45;;;;;;;29.85;21.17;;;15.90;99.90;;;;;;5011708;28;20030;-49
2022/09/03 02:24:10;;;;;;;22.48;17.75;;;15.90;99.90;;;;;;5012147;28;20037;-51
2022/09/03 02:26:36;;;;;;;24.05;18.02;;;15.80;99.90;;;;;;5012069;28;20389;-47
2022/09/03 02:29:02;;;;;;;27.48;18.77;;;15.70;99.90;;;;;;5011937;28;20054;-50
2022/09/03 02:31:28;;;;;;;23.80;18.85;;;15.60;99.90;;;;;;4998073;28;20026;-49
2022/09/03 02:33:56;;;;;;;27.58;21.75;;;15.70;99.90;;;;;;5011810;28;20079;-48
2022/09/03 02:36:37;;;;;;;29.27;21.20;;;15.70;99.90;;;;;;5011627;28;20535;-51
2022/09/03 02:39:03;;;;;;;27.02;21.05;;;15.60;99.90;;;;;;5011856;28;20117;-49
2022/09/03 02:41:30;;;;;;;30.38;23.67;;;15.70;99.90;;;;;;5011536;28;20034;-52
2022/09/03 02:44:26;;;;;;;34.58;24.58;;;15.70;99.90;;;;;;5011748;28;20075;-50
2022/09/03 02:47:01;;;;;;;29.25;21.15;;;15.80;99.90;;;;;;5011802;28;20088;-48
2022/09/03 02:49:28;;;;;;;30.75;22.88;;;15.80;99.90;;;;;;5011817;28;20061;-52
2022/09/03 02:52:04;;;;;;;32.38;23.52;;;15.80;99.90;;;;;;5011012;28;20009;-51
2022/09/03 02:54:32;;;;;;;29.63;22.55;;;15.90;99.90;;;;;;5011435;28;20037;-47
2022/09/03 02:56:58;;;;;;;32.05;24.40;;;16.00;99.90;;;;;;5010965;28;20042;-47
2022/09/03 02:59:27;;;;;;;24.15;18.35;;;16.10;99.90;;;;;;5011792;28;20096;-48
2022/09/03 03:01:53;;;;;;;21.47;15.47;;;16.10;99.90;;;;;;5011310;28;20058;-49
2022/09/03 03:04:19;;;;;;;20.80;15.48;;;16.10;99.90;;;;;;5010556;28;20385;-49
2022/09/03 03:06:44;;;;;;;19.90;15.23;;;16.10;99.90;;;;;;5011588;28;20030;-51
2022/09/03 03:09:10;;;;;;;19.50;14.60;;;16.10;99.90;;;;;;5011206;28;20547;-48
2022/09/03 03:11:36;;;;;;;17.55;14.35;;;16.00;99.90;;;;;;5011386;28;20112;-51
2022/09/03 03:14:02;;;;;;;21.20;14.93;;;16.10;99.90;;;;;;5011494;28;20029;-48
2022/09/03 03:16:28;;;;;;;18.27;14.95;;;16.10;99.90;;;;;;5011396;28;20030;-51
2022/09/03 03:18:55;;;;;;;19.65;15.50;;;16.10;99.90;;;;;;5011192;28;20382;-52
2022/09/03 03:21:21;;;;;;;23.38;17.35;;;16.00;99.90;;;;;;5011007;28;20029;-53
2022/09/03 03:23:47;;;;;;;22.02;16.55;;;16.00;99.90;;;;;;5011154;28;20026;-48
2022/09/03 03:26:18;;;;;;;19.48;15.68;;;16.00;99.90;;;;;;5011062;28;20081;-48
2022/09/03 03:28:47;;;;;;;20.42;15.68;;;16.00;99.90;;;;;;5011413;28;20096;-48
2022/09/03 03:31:16;;;;;;;23.52;16.35;;;16.00;99.90;;;;;;5011219;28;20126;-50
2022/09/03 03:33:42;;;;;;;24.15;15.52;;;16.00;99.90;;;;;;5011255;28;20037;-49
2022/09/03 03:36:13;;;;;;;24.50;15.93;;;16.00;99.90;;;;;;5002201;28;20018;-47
2022/09/03 03:38:40;;;;;;;20.80;16.02;;;15.90;99.90;;;;;;4991400;28;20035;-50
2022/09/03 03:41:14;;;;;;;22.13;16.80;;;15.90;99.90;;;;;;4995383;28;20061;-49
2022/09/03 03:43:40;;;;;;;20.52;16.15;;;15.90;99.90;;;;;;5010094;28;20022;-49
2022/09/03 03:46:06;;;;;;;21.65;16.73;;;15.90;99.90;;;;;;4998234;28;20036;-47
2022/09/03 03:48:32;;;;;;;26.48;17.75;;;15.80;99.90;;;;;;5011025;28;20387;-50
2022/09/03 03:51:03;;;;;;;25.08;19.88;;;15.80;99.90;;;;;;5010650;28;20040;-49
2022/09/03 03:53:34;;;;;;;33.22;19.75;;;15.80;99.90;;;;;;5009841;28;20041;-49
2022/09/03 03:56:02;;;;;;;27.02;21.35;;;15.80;99.90;;;;;;5010780;28;20022;-51
2022/09/03 03:58:30;;;;;;;29.83;21.83;;;15.70;99.90;;;;;;5011158;28;20053;-48
2022/09/03 04:01:06;;;;;;;27.33;19.65;;;15.70;99.90;;;;;;5010774;28;20136;-50
2022/09/03 04:03:33;;;;;;;25.88;18.88;;;15.70;99.90;;;;;;5010881;28;20030;-51
2022/09/03 04:05:59;;;;;;;24.25;18.77;;;15.70;99.90;;;;;;5010975;28;20037;-47
2022/09/03 04:08:28;;;;;;;27.13;19.90;;;15.80;99.90;;;;;;5010933;28;20026;-48
2022/09/03 04:10:58;;;;;;;27.17;21.48;;;15.80;99.90;;;;;;4997059;28;20030;-49
2022/09/03 04:13:23;;;;;;;27.30;21.63;;;15.80;99.90;;;;;;5010887;28;20026;-49
2022/09/03 04:15:49;;;;;;;33.58;23.65;;;15.80;99.90;;;;;;5012013;28;20378;-48
2022/09/03 04:18:15;;;;;;;32.67;24.65;;;15.80;99.90;;;;;;5014307;28;20026;-47
2022/09/03 04:20:40;;;;;;;33.90;24.85;;;15.80;99.90;;;;;;5014119;28;20066;-47
2022/09/03 04:23:06;;;;;;;35.47;25.52;;;15.80;99.90;;;;;;5014077;28;20029;-51
2022/09/03 04:25:32;;;;;;;32.33;26.13;;;15.70;99.90;;;;;;5014412;28;20065;-49
2022/09/03 04:27:58;;;;;;;32.58;24.60;;;15.70;99.90;;;;;;5014174;28;20038;-50
2022/09/03 04:30:24;;;;;;;37.70;25.63;;;15.70;99.90;;;;;;5014201;28;20440;-48
2022/09/03 04:32:52;;;;;;;35.97;26.23;;;15.60;99.90;;;;;;5014051;28;20037;-50
2022/09/03 04:35:24;;;;;;;35.17;26.00;;;15.60;99.90;;;;;;5014041;28;20026;-48
2022/09/03 04:37:50;;;;;;;36.63;25.77;;;15.60;99.90;;;;;;5014221;28;20030;-48
2022/09/03 04:40:17;;;;;;;34.17;25.73;;;15.60;99.90;;;;;;5013906;28;20022;-49
2022/09/03 04:42:42;;;;;;;31.58;23.17;;;15.60;99.90;;;;;;5014025;28;20026;-50
2022/09/03 04:45:09;;;;;;;30.27;23.60;;;15.60;99.90;;;;;;4999908;28;20034;-49
2022/09/03 04:47:36;;;;;;;37.05;24.17;;;15.60;99.90;;;;;;5013708;28;20428;-48
2022/09/03 04:50:02;;;;;;;30.23;23.25;;;15.60;99.90;;;;;;5013780;28;20117;-49
2022/09/03 04:52:30;;;;;;;31.23;22.35;;;15.60;99.90;;;;;;5013585;28;20034;-47
2022/09/03 04:54:59;;;;;;;28.15;21.70;;;15.50;99.90;;;;;;5013740;28;20076;-51
2022/09/03 04:57:25;;;;;;;29.98;22.67;;;15.50;99.90;;;;;;4999871;28;20469;-48
2022/09/03 04:59:51;;;;;;;28.13;20.63;;;15.50;99.90;;;;;;5013636;28;20472;-49
2022/09/03 05:02:17;;;;;;;27.55;20.85;;;15.50;99.90;;;;;;4995947;28;20049;-48
2022/09/03 05:04:42;;;;;;;27.55;21.20;;;15.60;99.90;;;;;;5013792;28;20061;-47
2022/09/03 05:07:08;;;;;;;29.38;20.90;;;15.60;99.90;;;;;;5013462;28;20021;-48
2022/09/03 05:09:33;;;;;;;24.13;19.25;;;15.50;99.90;;;;;;5013521;28;20038;-48
2022/09/03 05:11:59;;;;;;;25.92;19.83;;;15.60;99.90;;;;;;5013588;28;20060;-48
2022/09/03 05:14:25;;;;;;;30.92;20.60;;;15.60;99.90;;;;;;5013333;28;20089;-52
2022/09/03 05:16:50;;;;;;;23.02;19.08;;;15.70;99.90;;;;;;5013453;28;20022;-48
2022/09/03 05:19:16;;;;;;;26.02;18.63;;;15.60;99.90;;;;;;5013279;28;20061;-48
2022/09/03 05:21:42;;;;;;;23.38;19.30;;;15.60;99.90;;;;;;5013124;28;20045;-51
2022/09/03 05:24:07;;;;;;;22.98;18.75;;;15.60;99.90;;;;;;5013094;28;20084;-48
2022/09/03 05:26:37;;;;;;;24.70;18.48;;;15.60;99.90;;;;;;5012892;28;20083;-51
2022/09/03 05:29:08;;;;;;;25.77;18.38;;;15.60;99.90;;;;;;5012652;28;20093;-47
2022/09/03 05:31:37;;;;;;;26.27;19.05;;;15.60;99.90;;;;;;5013055;28;20045;-50
2022/09/03 05:34:04;;;;;;;;;;;15.60;99.90;;;;;;5013640;28;20026;-48
2022/09/03 05:36:33;;;;;;;22.10;18.02;;;15.50;99.90;;;;;;5013047;28;19929;-51
2022/09/03 05:38:59;;;;;;;23.83;18.27;;;15.50;99.90;;;;;;5012871;28;20030;-51
2022/09/03 05:41:26;;;;;;;24.15;19.40;;;15.50;99.90;;;;;;5012821;28;20085;-50
2022/09/03 05:43:57;;;;;;;25.63;20.35;;;15.50;99.90;;;;;;5008190;28;20024;-49
2022/09/03 05:46:30;;;;;;;26.77;20.85;;;15.40;99.90;;;;;;5004461;28;20116;-47
2022/09/03 05:48:58;;;;;;;29.48;20.58;;;15.40;99.90;;;;;;5012604;28;20029;-47
2022/09/03 05:51:24;;;;;;;25.25;20.02;;;15.40;99.90;;;;;;5012480;28;20096;-48
2022/09/03 05:53:49;;;;;;;30.73;22.58;;;15.40;99.90;;;;;;5012562;28;20034;-48
2022/09/03 05:56:17;;;;;;;26.40;20.83;;;15.50;99.90;;;;;;5012574;28;20064;-52
2022/09/03 05:58:46;;;;;;;28.13;22.45;;;15.40;99.90;;;;;;5008947;28;20026;-48
2022/09/03 06:01:15;;;;;;;32.07;22.70;;;15.50;99.90;;;;;;5006306;28;20034;-48
2022/09/03 06:03:42;;;;;;;;;;;15.50;99.90;;;;;;5010610;28;20501;-48
2022/09/03 06:06:08;;;;;;;30.77;24.00;;;15.40;99.90;;;;;;5008907;28;19909;-52
2022/09/03 06:08:37;;;;;;;32.67;23.20;;;15.50;99.90;;;;;;5010625;28;20041;-49
2022/09/03 06:11:03;;;;;;;29.58;22.45;;;15.50;99.90;;;;;;5008215;28;20034;-49
2022/09/03 06:13:30;;;;;;;29.55;22.13;;;15.50;99.90;;;;;;5011538;28;20255;-48
2022/09/03 06:16:01;;;;;;;27.63;20.13;;;15.60;99.90;;;;;;5006416;28;20026;-50
2022/09/03 06:18:27;;;;;;;25.02;19.10;;;15.60;99.90;;;;;;5007962;28;20393;-51
2022/09/03 06:21:05;;;;;;;26.08;18.42;;;15.70;99.90;;;;;;5002698;28;20029;-49
2022/09/03 06:23:32;;;;;;;23.02;18.75;;;15.80;99.90;;;;;;5009212;28;20128;-48
2022/09/03 06:26:07;;;;;;;23.85;18.70;;;15.90;99.90;;;;;;5005056;28;20021;-49
2022/09/03 06:28:35;;;;;;;24.42;19.80;;;16.00;99.90;;;;;;5011007;28;20042;-48
2022/09/03 06:31:07;;;;;;;24.40;18.98;;;16.20;99.90;;;;;;5008530;28;20022;-49
2022/09/03 06:33:34;;;;;;;23.85;16.95;;;16.60;99.90;;;;;;5009201;28;20034;-49
2022/09/03 06:36:02;;;;;;;17.10;14.63;;;17.20;99.90;;;;;;5009268;28;20465;-49
2022/09/03 06:38:34;;;;;;;17.02;14.43;;;17.80;99.90;;;;;;5008234;28;20034;-47
2022/09/03 06:41:02;;;;;;;18.60;15.38;;;18.30;99.90;;;;;;5010088;28;20052;-48
2022/09/03 06:43:31;;;;;;;18.17;15.15;;;18.60;99.90;;;;;;5008122;28;20025;-47
2022/09/03 06:46:06;;;;;;;18.35;15.27;;;18.70;99.90;;;;;;5008078;28;20029;-51
2022/09/03 06:48:32;;;;;;;21.25;17.00;;;18.70;99.90;;;;;;5007544;28;20076;-50
2022/09/03 06:51:13;;;;;;;21.40;17.30;;;18.70;99.90;;;;;;5008158;28;20033;-47
2022/09/03 06:53:42;;;;;;;20.85;17.75;;;18.80;99.90;;;;;;5009731;28;20021;-52
2022/09/03 06:56:11;;;;;;;20.70;17.30;;;19.10;99.90;;;;;;5010867;28;20036;-51
2022/09/03 06:58:43;;;;;;;19.00;15.60;;;19.60;99.90;;;;;;5011049;28;20034;-47
2022/09/03 07:01:17;;;;;;;17.88;14.07;;;20.30;99.90;;;;;;4997408;28;20072;-48
2022/09/03 07:03:45;;;;;;;22.30;17.85;;;21.10;99.90;;;;;;5004545;28;20026;-46
2022/09/03 07:06:14;;;;;;;22.38;18.35;;;21.70;99.90;;;;;;4999985;28;20032;-52
2022/09/03 07:08:40;;;;;;;21.48;19.30;;;22.20;99.90;;;;;;5001637;28;20510;-47
2022/09/03 07:11:09;;;;;;;23.00;19.73;;;22.70;99.90;;;;;;5004927;28;20117;-47
2022/09/03 07:13:40;;;;;;;24.17;20.77;;;23.00;99.90;;;;;;5008739;28;20033;-48
2022/09/03 07:16:17;;;;;;;23.60;21.10;;;23.20;99.90;;;;;;5004005;28;20033;-49
2022/09/03 07:18:43;;;;;;;26.50;21.35;;;23.50;99.90;;;;;;5008847;28;20109;-49
2022/09/03 07:21:11;;;;;;;22.30;19.52;;;23.70;99.90;;;;;;4998553;28;20168;-51
2022/09/03 07:23:38;;;;;;;21.73;19.00;;;23.90;99.90;;;;;;5006009;28;20489;-50
2022/09/03 07:26:09;;;;;;;23.20;20.48;;;24.30;99.90;;;;;;5005696;28;20046;-53
2022/09/03 07:28:37;;;;;;;20.15;18.15;;;24.60;99.90;;;;;;5001238;28;20124;-49
2022/09/03 07:31:14;;;;;;;21.30;18.35;;;24.70;99.90;;;;;;5001834;28;20037;-54
2022/09/03 07:33:41;;;;;;;21.75;18.95;;;25.10;99.50;;;;;;5001573;28;20026;-49
2022/09/03 07:36:13;;;;;;;20.10;18.10;;;25.30;98.90;;;;;;4996508;28;20022;-50
2022/09/03 07:38:39;;;;;;;17.90;15.40;;;25.70;98.60;;;;;;5005533;28;20100;-48
2022/09/03 07:41:07;;;;;;;18.10;16.05;;;26.30;98.60;;;;;;5007481;28;20033;-54
2022/09/03 07:43:38;;;;;;;20.13;15.90;;;26.80;97.30;;;;;;5006764;28;20026;-49
2022/09/03 07:46:05;;;;;;;20.33;18.23;;;27.20;96.80;;;;;;5006412;28;20556;-48
2022/09/03 07:48:31;;;;;;;19.38;17.10;;;27.20;96.00;;;;;;5004207;28;20149;-48
2022/09/03 07:51:00;;;;;;;19.55;17.50;;;27.10;96.20;;;;;;5002945;28;20112;-48
2022/09/03 07:53:27;;;;;;;19.98;17.88;;;27.10;95.80;;;;;;5008481;28;20022;-47
2022/09/03 07:55:53;;;;;;;19.85;17.75;;;27.10;96.50;;;;;;5013565;28;20167;-47
2022/09/03 07:58:23;;;;;;;19.73;17.05;;;26.90;95.80;;;;;;5011030;28;20030;-47
2022/09/03 08:00:48;;;;;;;20.60;18.40;;;26.90;96.70;;;;;;5009589;28;20464;-47
2022/09/03 08:03:14;;;;;;;19.23;16.23;;;26.70;96.10;;;;;;5004430;28;20038;-49
2022/09/03 08:05:40;;;;;;;19.05;16.42;;;27.10;96.60;;;;;;5006178;28;20085;-47
2022/09/03 08:08:06;;;;;;;17.13;14.73;;;27.00;96.30;;;;;;5001527;28;20037;-47
2022/09/03 08:10:37;;;;;;;15.80;14.15;;;26.70;96.40;;;;;;4981947;28;20030;-47
2022/09/03 08:13:04;;;;;;;17.52;15.45;;;26.30;97.20;;;;;;4996651;28;20021;-51
2022/09/03 08:15:30;;;;;;;17.85;15.63;;;26.20;97.40;;;;;;4998491;28;20034;-48
2022/09/03 08:17:56;;;;;;;17.58;14.60;;;26.10;97.10;;;;;;5007900;28;20029;-48
2022/09/03 08:20:22;;;;;;;18.65;16.10;;;26.50;98.30;;;;;;5011436;28;20113;-50
2022/09/03 08:22:47;;;;;;;18.52;15.80;;;26.60;97.10;;;;;;5012485;28;20025;-47
2022/09/03 08:25:13;;;;;;;18.75;15.15;;;26.40;96.60;;;;;;5006587;28;20085;-47
2022/09/03 08:27:39;;;;;;;17.83;15.95;;;26.80;97.00;;;;;;5003281;28;20465;-50
2022/09/03 08:30:10;;;;;;;15.98;13.82;;;27.10;96.80;;;;;;5006183;28;20092;-47
2022/09/03 08:32:37;;;;;;;19.00;15.13;;;27.50;97.00;;;;;;4999419;28;20041;-50
2022/09/03 08:35:05;;;;;;;18.52;14.70;;;27.10;95.10;;;;;;5003921;28;20048;-47
2022/09/03 08:37:31;;;;;;;18.55;16.55;;;26.60;96.60;;;;;;5008423;28;20041;-47
2022/09/03 08:39:59;;;;;;;20.38;17.63;;;25.90;96.90;;;;;;5005941;28;20486;-47
2022/09/03 08:42:27;;;;;;;17.25;15.13;;;25.60;98.10;;;;;;4993550;28;20030;-47
2022/09/03 08:44:59;;;;;;;20.23;16.60;;;25.80;98.80;;;;;;4993410;28;20034;-48
2022/09/03 08:47:56;;;;;;;14.85;12.18;;;25.70;98.60;;;;;;5013474;28;20080;-48
2022/09/03 08:50:29;;;;;;;16.25;13.85;;;26.50;97.40;;;;;;5007018;28;20479;-47
2022/09/03 08:53:19;;;;;;;16.58;12.40;;;27.10;98.10;;;;;;5006517;28;20046;-48
2022/09/03 08:55:49;;;;;;;17.58;15.02;;;28.00;97.20;;;;;;4991813;28;20494;-46
2022/09/03 08:58:20;;;;;;;14.30;11.95;;;28.20;95.00;;;;;;5007988;28;20029;-47
2022/09/03 09:00:53;;;;;;;13.38;11.85;;;28.70;95.20;;;;;;5009586;28;20013;-49
2022/09/03 09:03:39;;;;;;;13.07;11.57;;;28.50;93.70;;;;;;5010121;28;20038;-48
2022/09/03 09:06:20;;;;;;;16.45;11.98;;;27.80;93.40;;;;;;5011845;28;20034;-47
2022/09/03 09:09:01;;;;;;;14.57;11.48;;;27.50;94.60;;;;;;5010055;28;20041;-47
2022/09/03 09:11:58;;;;;;;14.98;10.82;;;28.20;94.50;;;;;;5009930;28;20126;-51
2022/09/03 09:14:32;;;;;;;12.15;10.38;;;29.00;93.30;;;;;;5008181;28;20128;-55
2022/09/03 09:17:23;;;;;;;13.75;10.80;;;30.20;92.20;;;;;;5009576;28;20022;-48
2022/09/03 09:20:10;;;;;;;13.60;9.95;;;31.10;91.60;;;;;;5011384;28;20014;-48
2022/09/03 09:22:43;;;;;;;11.65;10.23;;;30.50;88.80;;;;;;5011055;28;20018;-48
2022/09/03 09:25:22;;;;;;;11.70;9.90;;;30.30;91.20;;;;;;5009794;28;20366;-53
2022/09/03 09:27:53;;;;;;;12.57;10.80;;;30.30;90.80;;;;;;5007961;28;20041;-51
2022/09/03 09:30:19;;;;;;;10.85;8.32;;;30.60;87.60;;;;;;4997784;28;20038;-48
2022/09/03 09:32:46;;;;;;;8.68;7.55;;;31.30;90.20;;;;;;5004443;28;20108;-47
2022/09/03 09:35:13;;;;;;;9.45;7.95;;;30.90;81.60;;;;;;5005688;28;20615;-51
2022/09/03 09:37:50;;;;;;;8.75;6.63;;;29.90;85.20;;;;;;5004627;28;20045;-51
2022/09/03 09:40:25;;;;;;;7.57;5.80;;;29.80;90.10;;;;;;5007493;28;20029;-49
2022/09/03 09:42:57;;;;;;;7.28;5.95;;;29.50;89.90;;;;;;5004694;28;20018;-50
2022/09/03 09:45:23;;;;;;;9.30;6.22;;;29.50;91.10;;;;;;5004650;28;20034;-49
2022/09/03 09:47:52;;;;;;;8.60;7.60;;;29.30;90.20;;;;;;5006302;28;20408;-50
2022/09/03 09:50:20;;;;;;;7.25;5.78;;;28.40;89.60;;;;;;5004020;28;20061;-50
2022/09/03 09:52:46;;;;;;;8.70;6.05;;;27.70;92.00;;;;;;5005373;28;20101;-51
2022/09/03 09:55:18;;;;;;;8.77;5.85;;;27.60;91.60;;;;;;5003651;28;20113;-50
2022/09/03 09:57:43;;;;;;;8.00;5.60;;;27.00;91.70;;;;;;5007785;28;20033;-51
2022/09/03 10:00:16;;;;;;;6.60;4.80;;;26.60;92.70;;;;;;5007798;28;20088;-46
2022/09/03 10:02:55;;;;;;;4.78;3.63;;;26.20;93.20;;;;;;5006616;28;20045;-48
2022/09/03 10:05:27;;;;;;;4.50;3.55;;;25.80;94.30;;;;;;5007120;28;20034;-51
2022/09/03 10:08:04;;;;;;;5.78;3.15;;;26.50;95.00;;;;;;5007850;28;20033;-49
2022/09/03 10:10:43;;;;;;;3.97;2.60;;;28.00;93.80;;;;;;5008692;28;20048;-47
2022/09/03 10:13:13;;;;;;;4.75;2.88;;;29.10;90.70;;;;;;5008103;28;20101;-53
2022/09/03 10:15:44;;;;;;;3.92;2.78;;;28.40;89.50;;;;;;5003201;28;20591;-45
2022/09/03 10:18:27;;;;;;;3.72;2.85;;;27.80;91.00;;;;;;5003844;28;20480;-51
2022/09/03 10:21:03;;;;;;;3.88;2.63;;;27.70;90.20;;;;;;5003649;28;20026;-51
2022/09/03 10:23:50;;;;;;;4.05;3.05;;;27.60;91.50;;;;;;5005617;28;20018;-46
2022/09/03 10:26:27;;;;;;;4.28;3.03;;;27.40;91.60;;;;;;5005907;28;20073;-46
2022/09/03 10:28:57;;;;;;;4.05;2.58;;;27.90;92.10;;;;;;5007939;28;20038;-46
2022/09/03 10:31:38;;;;;;;4.80;2.88;;;28.70;91.10;;;;;;4986354;28;20029;-50
2022/09/03 10:34:17;;;;;;;5.22;3.20;;;28.50;88.70;;;;;;5003173;28;20041;-46
2022/09/03 10:37:09;;;;;;;7.65;3.05;;;27.80;90.60;;;;;;5004921;28;20028;-49
2022/09/03 10:39:51;;;;;;;8.90;3.47;;;28.10;91.50;;;;;;4976171;28;20034;-48
2022/09/03 10:42:36;;;;;;;5.45;3.10;;;28.30;90.20;;;;;;5003593;28;20037;-50
2022/09/03 10:45:14;;;;;;;5.95;3.78;;;28.60;91.40;;;;;;5004888;28;20061;-46
2022/09/03 10:47:48;;;;;;;4.90;3.23;;;29.30;90.00;;;;;;5004167;28;20050;-50
2022/09/03 10:50:22;;;;;;;4.20;3.08;;;29.40;87.70;;;;;;5007963;28;21227;-47
2022/09/03 10:53:26;;;;;;;4.57;3.17;;;29.10;86.90;;;;;;5000896;28;20030;-46
2022/09/03 10:56:11;;;;;;;3.65;2.38;;;28.40;89.80;;;;;;4974101;28;20034;-47
2022/09/03 10:58:48;;;;;;;5.80;3.40;;;28.10;88.10;;;;;;4999982;28;20026;-47
2022/09/03 11:01:23;;;;;;;4.95;3.30;;;28.20;90.10;;;;;;5001716;28;20052;-48
2022/09/03 11:04:13;;;;;;;5.13;2.90;;;28.60;90.40;;;;;;5005575;28;20050;-51
2022/09/03 11:06:49;;;;;;;4.95;3.20;;;29.00;89.70;;;;;;4996246;28;20022;-50
2022/09/03 11:09:47;;;;;;;5.20;2.72;;;29.20;88.40;;;;;;5004695;28;20065;-58
2022/09/03 11:12:24;;;;;;;4.68;2.63;;;29.60;88.50;;;;;;5005078;28;20038;-49
2022/09/03 11:15:04;;;;;;;4.22;3.10;;;29.40;88.80;;;;;;5005970;28;20033;-52
2022/09/03 11:17:39;;;;;;;3.60;2.90;;;29.50;88.10;;;;;;5004749;28;20026;-52
2022/09/03 11:20:34;;;;;;;4.22;3.15;;;28.60;87.20;;;;;;5006687;28;20108;-52
2022/09/03 11:23:03;;;;;;;5.22;3.50;;;27.60;89.30;;;;;;4990230;28;20049;-49
2022/09/03 11:25:34;;;;;;;4.47;3.65;;;27.80;91.80;;;;;;5005374;28;20030;-47
2022/09/03 11:28:34;;;;;;;6.03;3.53;;;27.80;90.70;;;;;;5004599;28;20081;-47
2022/09/03 11:31:00;;;;;;;6.60;4.25;;;27.50;91.60;;;;;;5005326;28;20034;-48
2022/09/03 11:33:27;;;;;;;4.45;3.95;;;28.00;90.60;;;;;;5003709;28;20049;-48
2022/09/03 11:35:59;;;;;;;4.38;3.97;;;27.90;90.00;;;;;;5006771;28;20038;-46
2022/09/03 11:38:29;;;;;;;4.95;3.50;;;28.00;91.30;;;;;;4997576;28;20109;-48
2022/09/03 11:40:58;;;;;;;4.90;4.00;;;28.40;90.70;;;;;;5005353;28;20029;-49
2022/09/03 11:43:24;;;;;;;;;;;28.20;90.50;;;;;;5005556;28;20077;-49
2022/09/03 11:46:20;;;;;;;4.80;3.90;;;28.10;90.70;;;;;;5004165;28;19950;-49
2022/09/03 11:48:49;;;;;;;5.75;4.20;;;27.70;90.90;;;;;;5003585;28;20037;-50
2022/09/03 11:51:32;;;;;;;5.55;4.18;;;27.30;91.70;;;;;;5001764;28;20030;-47
2022/09/03 11:54:00;;;;;;;5.47;4.80;;;27.20;92.10;;;;;;5004708;28;20036;-52
2022/09/03 11:56:28;;;;;;;5.88;4.10;;;27.10;92.30;;;;;;5008130;28;20046;-52
2022/09/03 11:59:12;;;;;;;5.97;4.57;;;27.20;92.60;;;;;;4994550;28;20022;-51
2022/09/03 12:01:45;;;;;;;6.13;4.40;;;26.60;92.00;;;;;;5002074;28;20105;-47
2022/09/03 12:04:16;;;;;;;6.03;4.60;;;26.30;92.80;;;;;;5004101;28;20041;-51
2022/09/03 12:06:59;;;;;;;6.93;4.78;;;26.10;93.40;;;;;;5005496;28;20010;-52
2022/09/03 12:09:43;;;;;;;7.47;5.40;;;26.10;94.90;;;;;;5005797;28;20042;-47
2022/09/03 12:12:38;;;;;;;8.45;6.03;;;25.90;94.00;;;;;;5007689;28;20022;-49
2022/09/03 12:15:31;;;;;;;6.85;5.80;;;25.80;94.50;;;;;;5004424;28;20113;-48
2022/09/03 12:18:18;;;;;;;8.00;6.10;;;25.60;94.40;;;;;;5008514;28;20109;-49
2022/09/03 12:20:51;;;;;;;7.28;5.93;;;25.40;95.00;;;;;;5006652;28;20014;-49
2022/09/03 12:23:32;;;;;;;9.27;6.90;;;25.20;95.40;;;;;;4994891;28;20392;-52
2022/09/03 12:26:13;;;;;;;9.13;7.10;;;25.00;95.90;;;;;;4995404;28;20042;-48
2022/09/03 12:28:41;;;;;;;7.82;6.50;;;24.70;96.00;;;;;;4999676;28;20069;-52
2022/09/03 12:31:20;;;;;;;8.93;6.95;;;24.50;97.30;;;;;;4994760;28;20414;-49
2022/09/03 12:33:55;;;;;;;8.55;7.13;;;24.30;97.50;;;;;;4999550;28;20079;-49
2022/09/03 12:36:21;;;;;;;9.73;8.20;;;24.10;98.30;;;;;;4999187;28;20649;-47
2022/09/03 12:38:48;;;;;;;10.75;8.18;;;24.10;99.00;;;;;;5003271;28;20037;-46
2022/09/03 12:41:26;;;;;;;10.18;9.07;;;24.10;98.70;;;;;;5007351;28;20551;-48
2022/09/03 12:43:57;;;;;;;11.60;9.05;;;23.80;98.70;;;;;;5009687;28;20127;-49
2022/09/03 12:46:28;;;;;;;14.88;9.52;;;23.60;99.80;;;;;;5005398;28;20018;-49
2022/09/03 12:49:04;;;;;;;11.40;9.50;;;23.50;99.40;;;;;;5007370;28;20030;-48
2022/09/03 12:51:42;;;;;;;9.90;7.93;;;23.50;99.90;;;;;;5009586;28;20021;-48
2022/09/03 12:54:15;;;;;;;9.70;8.00;;;23.50;99.90;;;;;;5006704;28;20034;-52
2022/09/03 12:56:52;;;;;;;11.45;8.05;;;23.60;99.90;;;;;;4992057;28;20439;-49
2022/09/03 12:59:20;;;;;;;9.00;7.53;;;23.80;99.80;;;;;;5006696;28;20042;-49
2022/09/03 13:01:54;;;;;;;9.07;7.15;;;24.10;99.90;;;;;;5010139;28;20519;-53